Time;durP1;ratioP1;P1;durP2;ratioP2;P2;SDS_P1;SDS_P2;PMS_P1;PMS_P2;Temp;Humidity;BMP_temperature;BMP_pressure;BME280_temperature;BME280_humidity;BME280_pressure;Samples;Min_cycle;Max_cycle;Signal;HPM_P1;HPM_P2
2022/01/07 00:00:13;;;;;;;69.22;26.25;;;3.40;99.90;;;;;;5038199;28;20031;-50
2022/01/07 00:02:39;;;;;;;67.30;27.48;;;3.40;99.90;;;;;;5055729;28;20040;-48
2022/01/07 00:05:06;;;;;;;60.95;25.92;;;3.30;99.90;;;;;;5062749;28;20025;-47
2022/01/07 00:07:31;;;;;;;63.80;25.60;;;3.30;99.90;;;;;;5075559;28;20465;-49
2022/01/07 00:09:57;;;;;;;68.03;25.48;;;3.30;99.90;;;;;;5065393;28;20044;-51
2022/01/07 00:12:23;;;;;;;61.30;24.90;;;3.40;99.90;;;;;;5054291;28;20025;-49
2022/01/07 00:14:49;;;;;;;61.45;26.35;;;3.30;99.90;;;;;;5055080;28;20039;-53
2022/01/07 00:17:14;;;;;;;65.40;26.20;;;3.30;99.90;;;;;;5044225;28;20123;-50
2022/01/07 00:19:40;;;;;;;66.53;25.65;;;3.30;99.90;;;;;;5044884;28;20021;-49
2022/01/07 00:22:05;;;;;;;77.20;26.42;;;3.30;99.90;;;;;;5042944;28;20029;-50
2022/01/07 00:24:31;;;;;;;66.82;26.58;;;3.30;99.90;;;;;;5026604;28;20040;-50
2022/01/07 00:26:57;;;;;;;61.22;24.48;;;3.30;99.90;;;;;;5044434;28;20113;-49
2022/01/07 00:29:22;;;;;;;56.40;24.10;;;3.30;99.90;;;;;;5037476;28;20029;-49
2022/01/07 00:31:48;;;;;;;64.00;25.92;;;3.30;99.90;;;;;;5015230;28;20075;-49
2022/01/07 00:34:13;;;;;;;69.50;24.65;;;3.30;99.90;;;;;;5034176;28;20140;-55
2022/01/07 00:36:39;;;;;;;57.10;22.83;;;3.30;99.90;;;;;;5033523;28;20397;-49
2022/01/07 00:39:04;;;;;;;57.67;23.02;;;3.40;99.90;;;;;;5035058;28;20018;-52
2022/01/07 00:41:30;;;;;;;63.40;24.65;;;3.40;99.90;;;;;;5034862;28;20031;-51
2022/01/07 00:43:56;;;;;;;58.40;24.13;;;3.40;99.90;;;;;;5034858;28;20029;-49
2022/01/07 00:46:21;;;;;;;58.53;23.98;;;3.40;99.90;;;;;;5061568;22;20080;-72
2022/01/07 00:48:47;;;;;;;54.75;22.42;;;3.40;99.90;;;;;;5076298;28;20107;-73
2022/01/07 00:51:13;;;;;;;55.05;21.27;;;3.40;99.90;;;;;;5058287;28;20054;-73
2022/01/07 00:53:39;;;;;;;60.85;21.38;;;3.40;99.90;;;;;;5075719;28;20499;-73
2022/01/07 00:56:04;;;;;;;57.78;21.23;;;3.40;99.90;;;;;;5075760;28;20481;-73
2022/01/07 00:58:30;;;;;;;47.17;19.83;;;3.40;99.90;;;;;;5076399;28;20477;-73
2022/01/07 01:00:55;;;;;;;50.40;20.45;;;3.30;99.90;;;;;;5057484;28;20056;-73
2022/01/07 01:03:21;;;;;;;51.15;19.45;;;3.40;99.90;;;;;;5081749;28;20029;-73
2022/01/07 01:05:47;;;;;;;46.50;19.35;;;3.40;99.90;;;;;;5095251;28;20028;-73
2022/01/07 01:08:12;;;;;;;49.28;19.10;;;3.40;99.90;;;;;;5057731;28;20393;-73
2022/01/07 01:10:38;;;;;;;49.30;18.17;;;3.40;99.90;;;;;;5075309;28;20446;-73
2022/01/07 01:13:03;;;;;;;44.58;17.30;;;3.40;99.90;;;;;;5074972;28;20097;-72
2022/01/07 01:15:29;;;;;;;46.53;18.25;;;3.50;99.90;;;;;;5075529;28;20047;-74
2022/01/07 01:17:57;;;;;;;55.47;18.48;;;3.50;99.90;;;;;;5075034;28;20046;-73
2022/01/07 01:20:24;;;;;;;48.47;18.15;;;3.50;99.90;;;;;;5075631;28;20420;-73
2022/01/07 01:22:50;;;;;;;55.83;18.25;;;3.50;99.90;;;;;;5057210;28;20055;-72
2022/01/07 01:25:16;;;;;;;39.90;17.60;;;3.50;99.90;;;;;;5074820;28;20073;-73
2022/01/07 01:27:43;;;;;;;40.03;17.13;;;3.50;99.90;;;;;;5057015;28;20089;-73
2022/01/07 01:30:11;;;;;;;42.80;17.73;;;3.50;99.90;;;;;;5074740;28;20024;-73
2022/01/07 01:32:37;;;;;;;41.10;16.38;;;3.60;99.90;;;;;;5075431;28;20034;-72
2022/01/07 01:35:05;;;;;;;44.55;15.80;;;3.60;99.90;;;;;;5075390;28;20150;-72
2022/01/07 01:37:31;;;;;;;42.55;17.08;;;3.60;99.90;;;;;;5076067;28;20027;-73
2022/01/07 01:39:57;;;;;;;40.35;16.65;;;3.60;99.90;;;;;;5074846;28;20032;-73
2022/01/07 01:42:23;;;;;;;40.33;15.98;;;3.60;99.90;;;;;;5056823;28;20055;-73
2022/01/07 01:44:49;;;;;;;38.22;14.85;;;3.50;99.90;;;;;;5074493;28;20025;-73
2022/01/07 01:47:14;;;;;;;38.70;15.32;;;3.50;99.90;;;;;;5056129;28;20036;-73
2022/01/07 01:49:40;;;;;;;33.30;14.65;;;3.50;99.90;;;;;;5074260;28;20048;-73
2022/01/07 01:52:06;;;;;;;47.53;15.73;;;3.50;99.90;;;;;;5075055;28;20480;-74
2022/01/07 01:54:32;;;;;;;37.78;15.02;;;3.50;99.90;;;;;;5074568;28;20183;-74
2022/01/07 01:56:57;;;;;;;40.95;14.13;;;3.50;99.90;;;;;;5074429;28;20099;-73
2022/01/07 01:59:28;;;;;;;37.55;14.13;;;3.50;99.90;;;;;;5073207;28;20020;-73
2022/01/07 02:01:54;;;;;;;35.75;13.90;;;3.50;99.90;;;;;;5074661;28;20021;-73
2022/01/07 02:04:20;;;;;;;33.67;14.15;;;3.50;99.90;;;;;;5074770;28;20494;-73
2022/01/07 02:06:46;;;;;;;36.60;13.27;;;3.50;99.90;;;;;;5074296;28;20025;-73
2022/01/07 02:09:11;;;;;;;35.60;13.90;;;3.50;99.90;;;;;;5074906;28;20028;-73
2022/01/07 02:11:37;;;;;;;40.03;13.10;;;3.50;99.90;;;;;;5074253;28;20035;-73
2022/01/07 02:14:03;;;;;;;40.78;13.68;;;3.50;99.90;;;;;;5074329;28;20493;-73
2022/01/07 02:16:28;;;;;;;29.98;13.25;;;3.50;99.90;;;;;;5056730;28;20028;-73
2022/01/07 02:18:54;;;;;;;34.70;13.38;;;3.50;99.90;;;;;;5073756;28;20036;-73
2022/01/07 02:21:21;;;;;;;37.15;11.73;;;3.60;99.90;;;;;;5074165;28;20105;-73
2022/01/07 02:23:47;;;;;;;23.50;11.77;;;3.60;99.90;;;;;;5056371;28;20035;-73
2022/01/07 02:26:14;;;;;;;24.98;11.50;;;3.60;99.90;;;;;;5074643;28;20021;-73
2022/01/07 02:28:41;;;;;;;31.58;11.15;;;3.60;99.90;;;;;;5055953;28;20393;-73
2022/01/07 02:31:08;;;;;;;28.50;11.55;;;3.60;99.90;;;;;;5073823;28;20040;-73
2022/01/07 02:33:33;;;;;;;33.50;11.10;;;3.60;99.90;;;;;;5073887;28;20051;-73
2022/01/07 02:36:09;;;;;;;32.58;11.73;;;3.60;99.90;;;;;;5073638;28;20064;-72
2022/01/07 02:38:36;;;;;;;27.88;11.20;;;3.70;99.90;;;;;;5074934;28;20041;-73
2022/01/07 02:41:01;;;;;;;32.45;10.50;;;3.60;99.90;;;;;;5074157;28;20060;-73
2022/01/07 02:43:27;;;;;;;35.63;10.73;;;3.60;99.90;;;;;;5073193;28;20444;-73
2022/01/07 02:45:53;;;;;;;25.10;10.88;;;3.60;99.90;;;;;;5055511;28;20024;-73
2022/01/07 02:48:18;;;;;;;24.63;10.60;;;3.60;99.90;;;;;;5073753;28;20558;-73
2022/01/07 02:50:44;;;;;;;28.65;9.90;;;3.60;99.90;;;;;;5056266;28;20435;-73
2022/01/07 02:53:10;;;;;;;31.52;10.02;;;3.60;99.90;;;;;;5073590;28;20501;-73
2022/01/07 02:55:38;;;;;;;24.17;9.95;;;3.60;99.90;;;;;;5073877;28;20077;-73
2022/01/07 02:58:04;;;;;;;27.98;10.43;;;3.60;99.90;;;;;;5074267;28;20039;-74
2022/01/07 03:00:30;;;;;;;27.63;8.90;;;3.60;99.90;;;;;;5073567;28;20381;-73
2022/01/07 03:02:57;;;;;;;31.08;9.73;;;3.60;99.90;;;;;;5062960;28;20028;-72
2022/01/07 03:05:23;;;;;;;25.40;9.18;;;3.70;99.90;;;;;;5091854;28;20093;-72
2022/01/07 03:07:49;;;;;;;27.75;9.20;;;3.70;99.90;;;;;;5073833;28;20101;-73
2022/01/07 03:10:17;;;;;;;24.70;9.20;;;3.60;99.90;;;;;;5073186;28;20025;-73
2022/01/07 03:12:43;;;;;;;21.00;9.48;;;3.60;99.90;;;;;;5055954;28;20025;-73
2022/01/07 03:15:13;;;;;;;22.52;9.25;;;3.50;99.90;;;;;;5074432;28;20021;-72
2022/01/07 03:17:40;;;;;;;23.17;8.73;;;3.50;99.90;;;;;;5073483;28;20059;-73
2022/01/07 03:20:13;;;;;;;26.65;9.05;;;3.50;99.90;;;;;;5074327;28;20021;-73
2022/01/07 03:22:40;;;;;;;29.08;10.45;;;3.40;99.90;;;;;;5075896;28;20062;-73
2022/01/07 03:25:07;;;;;;;25.83;8.82;;;3.40;99.90;;;;;;5079231;28;20033;-72
2022/01/07 03:27:33;;;;;;;25.23;8.27;;;3.40;99.90;;;;;;5081242;28;20025;-72
2022/01/07 03:29:58;;;;;;;19.20;8.25;;;3.30;99.90;;;;;;5087886;28;20060;-73
2022/01/07 03:32:24;;;;;;;25.00;9.43;;;3.30;99.90;;;;;;5070396;28;20024;-72
2022/01/07 03:34:51;;;;;;;27.00;9.40;;;3.30;99.90;;;;;;5073541;28;20024;-73
2022/01/07 03:37:16;;;;;;;20.73;10.07;;;3.30;99.90;;;;;;5054754;28;20033;-73
2022/01/07 03:39:42;;;;;;;21.73;9.77;;;3.20;99.90;;;;;;5073337;28;20038;-73
2022/01/07 03:42:08;;;;;;;23.60;10.38;;;3.20;99.90;;;;;;5054574;28;20028;-73
2022/01/07 03:44:34;;;;;;;25.60;9.95;;;3.10;99.90;;;;;;5072779;28;20481;-74
2022/01/07 03:46:59;;;;;;;22.30;9.90;;;3.20;99.90;;;;;;5073298;28;20470;-73
2022/01/07 03:49:25;;;;;;;24.83;10.45;;;3.10;99.90;;;;;;5073303;28;20214;-73
2022/01/07 03:51:50;;;;;;;21.42;9.10;;;3.10;99.90;;;;;;5073474;28;20021;-72
2022/01/07 03:54:16;;;;;;;25.20;10.43;;;3.00;99.90;;;;;;5054675;28;20357;-73
2022/01/07 03:56:42;;;;;;;21.10;10.43;;;2.90;99.90;;;;;;5072579;28;20032;-73
2022/01/07 03:59:07;;;;;;;28.27;10.52;;;2.90;99.90;;;;;;5054547;28;20048;-73
2022/01/07 04:01:33;;;;;;;22.90;10.13;;;2.90;99.90;;;;;;5054512;28;20067;-73
2022/01/07 04:03:58;;;;;;;28.23;11.52;;;2.90;99.90;;;;;;5072585;28;20028;-73
2022/01/07 04:06:24;;;;;;;31.00;10.95;;;2.90;99.90;;;;;;5072562;28;20529;-73
2022/01/07 04:08:50;;;;;;;21.65;11.13;;;2.90;99.90;;;;;;5073157;28;20043;-73
2022/01/07 04:11:16;;;;;;;18.83;10.30;;;2.90;99.90;;;;;;5054660;28;20090;-73
2022/01/07 04:13:44;;;;;;;34.80;12.95;;;2.90;99.90;;;;;;5072673;28;20424;-73
2022/01/07 04:16:10;;;;;;;23.38;11.25;;;2.90;99.90;;;;;;5075434;28;20025;-73
2022/01/07 04:18:36;;;;;;;20.08;9.80;;;2.90;99.90;;;;;;5089858;28;20059;-73
2022/01/07 04:21:02;;;;;;;28.48;11.48;;;3.00;99.90;;;;;;5073587;28;20036;-73
2022/01/07 04:23:27;;;;;;;27.55;11.20;;;3.00;99.90;;;;;;5075321;28;20032;-73
2022/01/07 04:25:53;;;;;;;27.83;11.55;;;3.00;99.90;;;;;;5076218;28;20032;-73
2022/01/07 04:28:19;;;;;;;27.60;12.07;;;3.00;99.90;;;;;;5075926;28;20517;-73
2022/01/07 04:30:45;;;;;;;29.88;12.32;;;3.00;99.90;;;;;;5077311;28;20027;-72
2022/01/07 04:33:14;;;;;;;21.40;9.68;;;3.00;99.90;;;;;;5076514;28;20087;-73
2022/01/07 04:35:41;;;;;;;26.95;12.60;;;2.90;99.90;;;;;;5075600;28;20055;-73
2022/01/07 04:38:08;;;;;;;30.75;12.45;;;2.90;99.90;;;;;;5075666;28;20111;-73
2022/01/07 04:40:35;;;;;;;23.80;11.32;;;2.90;99.90;;;;;;5057833;28;20028;-73
2022/01/07 04:43:03;;;;;;;23.38;11.77;;;2.90;99.90;;;;;;5076074;28;20382;-73
2022/01/07 04:45:29;;;;;;;22.88;11.85;;;3.00;99.90;;;;;;5075501;28;20029;-74
2022/01/07 04:47:54;;;;;;;23.67;10.95;;;3.00;99.90;;;;;;5057435;28;20115;-74
2022/01/07 04:50:22;;;;;;;23.65;12.45;;;3.00;99.90;;;;;;5075703;28;20154;-73
2022/01/07 04:52:48;;;;;;;29.98;11.60;;;2.90;99.90;;;;;;5076285;28;20124;-74
2022/01/07 04:55:19;;;;;;;23.67;12.20;;;3.00;99.90;;;;;;5076266;28;20094;-73
2022/01/07 04:57:46;;;;;;;31.50;11.93;;;3.00;99.90;;;;;;5075644;28;20437;-73
2022/01/07 05:00:13;;;;;;;24.65;12.82;;;3.00;99.90;;;;;;5057403;28;20029;-72
2022/01/07 05:02:38;;;;;;;25.33;12.95;;;3.00;99.90;;;;;;5067038;28;20044;-71
2022/01/07 05:05:05;;;;;;;26.95;12.52;;;3.00;99.90;;;;;;5087740;28;20485;-73
2022/01/07 05:07:30;;;;;;;25.02;12.02;;;2.90;99.90;;;;;;5063740;28;20390;-72
2022/01/07 05:09:56;;;;;;;22.52;11.68;;;2.90;99.90;;;;;;5065967;28;20070;-72
2022/01/07 05:12:22;;;;;;;26.35;12.35;;;2.90;99.90;;;;;;5070662;28;20028;-72
2022/01/07 05:14:47;;;;;;;31.30;12.57;;;2.80;99.90;;;;;;5064159;28;20029;-71
2022/01/07 05:17:13;;;;;;;26.10;12.40;;;2.80;99.90;;;;;;5061126;28;20108;-72
2022/01/07 05:19:38;;;;;;;24.15;12.45;;;2.80;99.90;;;;;;5048892;28;20029;-73
2022/01/07 05:22:04;;;;;;;29.48;12.98;;;2.80;99.90;;;;;;5063609;28;20050;-73
2022/01/07 05:24:30;;;;;;;29.80;13.90;;;2.80;99.90;;;;;;5045771;28;20017;-72
2022/01/07 05:26:55;;;;;;;29.48;12.38;;;2.80;99.90;;;;;;5063585;28;20032;-73
2022/01/07 05:29:21;;;;;;;23.63;12.32;;;2.90;99.90;;;;;;5063198;28;20017;-73
2022/01/07 05:31:46;;;;;;;25.13;12.25;;;2.80;99.90;;;;;;5065845;28;20031;-73
2022/01/07 05:34:12;;;;;;;24.15;12.45;;;2.80;99.90;;;;;;5065665;28;20385;-73
2022/01/07 05:36:38;;;;;;;31.27;12.90;;;2.80;99.90;;;;;;5067253;28;20025;-73
2022/01/07 05:39:05;;;;;;;28.77;12.98;;;2.80;99.90;;;;;;5066200;28;20032;-73
2022/01/07 05:41:31;;;;;;;25.27;12.82;;;2.80;99.90;;;;;;5066467;28;20051;-72
2022/01/07 05:43:57;;;;;;;26.70;13.35;;;2.80;99.90;;;;;;5057624;28;20497;-73
2022/01/07 05:46:22;;;;;;;25.10;12.13;;;2.90;99.90;;;;;;5055116;28;20025;-74
2022/01/07 05:48:48;;;;;;;33.15;13.57;;;2.90;99.90;;;;;;5055738;28;20051;-73
2022/01/07 05:51:14;;;;;;;29.75;12.43;;;2.90;99.90;;;;;;5037075;28;20058;-73
2022/01/07 05:53:41;;;;;;;34.85;13.65;;;2.90;99.90;;;;;;5054875;28;20394;-73
2022/01/07 05:56:07;;;;;;;26.80;12.80;;;2.90;99.90;;;;;;5037029;28;20174;-73
2022/01/07 05:58:33;;;;;;;24.38;12.07;;;2.90;99.90;;;;;;5055050;28;20079;-72
2022/01/07 06:00:59;;;;;;;34.05;14.13;;;2.90;99.90;;;;;;5054965;28;20025;-72
2022/01/07 06:03:25;;;;;;;28.38;13.13;;;2.90;99.90;;;;;;5054651;28;20021;-73
2022/01/07 06:05:50;;;;;;;27.33;13.30;;;2.90;99.90;;;;;;5056705;28;20032;-72
2022/01/07 06:08:16;;;;;;;29.05;13.90;;;2.90;99.90;;;;;;5066101;28;20115;-74
2022/01/07 06:10:42;;;;;;;30.95;13.82;;;3.00;99.90;;;;;;5059316;28;20099;-73
2022/01/07 06:13:07;;;;;;;32.17;13.95;;;3.00;99.90;;;;;;5074828;28;20028;-73
2022/01/07 06:15:33;;;;;;;29.27;13.35;;;3.00;99.90;;;;;;5056805;28;20478;-73
2022/01/07 06:17:59;;;;;;;29.50;13.52;;;3.00;99.90;;;;;;5074922;28;20039;-73
2022/01/07 06:20:26;;;;;;;29.00;13.90;;;3.00;99.90;;;;;;5063029;28;20028;-73
2022/01/07 06:22:51;;;;;;;24.88;13.15;;;3.10;99.90;;;;;;5066638;28;20029;-73
2022/01/07 06:25:17;;;;;;;30.50;14.23;;;3.10;99.90;;;;;;5049361;28;20028;-73
2022/01/07 06:27:42;;;;;;;24.70;13.18;;;3.10;99.90;;;;;;5062881;28;20032;-73
2022/01/07 06:30:09;;;;;;;24.73;14.38;;;3.10;99.90;;;;;;5054115;28;20451;-73
2022/01/07 06:32:35;;;;;;;27.15;14.32;;;3.20;99.90;;;;;;5070560;28;20047;-73
2022/01/07 06:35:01;;;;;;;27.88;14.25;;;3.20;99.90;;;;;;5073868;28;20462;-73
2022/01/07 06:37:26;;;;;;;26.67;13.32;;;3.20;99.90;;;;;;5073658;28;20037;-73
2022/01/07 06:39:52;;;;;;;28.17;15.32;;;3.20;99.90;;;;;;5067918;28;20024;-72
2022/01/07 06:42:18;;;;;;;29.70;15.32;;;3.20;99.90;;;;;;5072068;28;20029;-73
2022/01/07 06:44:44;;;;;;;30.23;15.52;;;3.20;99.90;;;;;;5063978;28;20036;-72
2022/01/07 06:47:10;;;;;;;27.42;14.75;;;3.20;99.90;;;;;;5064263;28;20489;-72
2022/01/07 06:49:36;;;;;;;26.17;14.50;;;3.20;99.90;;;;;;5091431;22;20044;-72
2022/01/07 06:52:01;;;;;;;33.85;16.17;;;3.30;99.90;;;;;;5070338;28;20389;-72
2022/01/07 06:54:27;;;;;;;27.05;15.27;;;3.30;99.90;;;;;;5062430;28;20033;-72
2022/01/07 06:56:53;;;;;;;27.10;14.75;;;3.30;99.90;;;;;;5066984;28;20501;-72
2022/01/07 06:59:19;;;;;;;28.65;16.23;;;3.20;99.90;;;;;;5050013;28;20047;-72
2022/01/07 07:01:47;;;;;;;25.20;16.02;;;3.20;99.90;;;;;;5040268;28;20029;-72
2022/01/07 07:04:16;;;;;;;25.88;15.63;;;3.20;99.90;;;;;;5044936;28;20037;-71
2022/01/07 07:06:42;;;;;;;29.00;15.43;;;3.20;99.90;;;;;;5045267;28;20374;-72
2022/01/07 07:09:08;;;;;;;29.58;17.40;;;3.20;99.90;;;;;;5037251;28;20079;-73
2022/01/07 07:11:34;;;;;;;27.38;16.45;;;3.20;99.90;;;;;;5044094;28;20456;-72
2022/01/07 07:14:00;;;;;;;29.42;16.80;;;3.20;99.90;;;;;;5041832;28;20021;-72
2022/01/07 07:16:25;;;;;;;33.85;17.27;;;3.20;99.90;;;;;;5040496;28;20116;-73
2022/01/07 07:18:51;;;;;;;27.02;16.52;;;3.20;99.90;;;;;;5042343;28;20032;-73
2022/01/07 07:21:16;;;;;;;31.40;17.33;;;3.20;99.90;;;;;;5042828;28;20108;-72
2022/01/07 07:23:42;;;;;;;31.13;16.58;;;3.30;99.90;;;;;;5046243;28;20032;-73
2022/01/07 07:26:08;;;;;;;33.35;16.83;;;3.30;99.90;;;;;;5034894;28;20028;-72
2022/01/07 07:28:36;;;;;;;27.92;17.65;;;3.30;99.90;;;;;;5038138;28;20025;-73
2022/01/07 07:31:05;;;;;;;28.13;16.38;;;3.30;99.90;;;;;;5039721;28;20105;-72
2022/01/07 07:33:56;;;;;;;27.48;15.88;;;3.30;99.90;;;;;;5039457;28;20060;-72
2022/01/07 07:36:30;;;;;;;26.15;16.30;;;3.30;99.90;;;;;;5045879;28;20446;-72
2022/01/07 07:39:07;;;;;;;26.58;16.98;;;3.40;99.90;;;;;;5043743;28;20018;-73
2022/01/07 07:41:35;;;;;;;26.38;16.33;;;3.40;99.90;;;;;;5049131;28;20424;-72
2022/01/07 07:44:02;;;;;;;25.90;16.42;;;3.30;99.90;;;;;;5036936;28;20079;-73
2022/01/07 07:46:30;;;;;;;26.00;17.40;;;3.30;99.90;;;;;;5046999;28;20029;-73
2022/01/07 07:48:56;;;;;;;28.42;16.90;;;3.40;99.90;;;;;;5042583;28;20504;-73
2022/01/07 07:51:22;;;;;;;24.88;16.40;;;3.40;99.90;;;;;;5039428;28;20033;-74
2022/01/07 07:53:48;;;;;;;32.60;16.77;;;3.40;99.90;;;;;;5038486;28;20079;-73
2022/01/07 07:56:16;;;;;;;27.85;16.55;;;3.40;99.90;;;;;;5039536;28;20048;-73
2022/01/07 07:58:42;;;;;;;28.80;17.30;;;3.40;99.90;;;;;;5042465;28;20029;-73
2022/01/07 08:01:08;;;;;;;30.33;18.00;;;3.40;99.90;;;;;;5038700;28;20029;-72
2022/01/07 08:03:34;;;;;;;33.33;17.38;;;3.40;99.90;;;;;;5048513;28;20044;-73
2022/01/07 08:05:59;;;;;;;29.33;18.48;;;3.40;99.90;;;;;;5045291;28;20550;-73
2022/01/07 08:08:25;;;;;;;28.13;18.63;;;3.40;99.90;;;;;;5051808;28;20158;-73
2022/01/07 08:10:55;;;;;;;38.10;18.60;;;3.40;99.90;;;;;;5040334;28;20056;-73
2022/01/07 08:13:30;;;;;;;30.27;18.40;;;3.40;99.90;;;;;;5040064;28;20024;-73
2022/01/07 08:16:04;;;;;;;33.50;19.42;;;3.40;99.90;;;;;;5047992;28;20104;-73
2022/01/07 08:18:32;;;;;;;36.05;20.83;;;3.40;99.90;;;;;;5049566;28;20044;-74
2022/01/07 08:21:01;;;;;;;31.10;19.02;;;3.40;99.90;;;;;;5040917;28;20068;-72
2022/01/07 08:23:27;;;;;;;32.25;18.60;;;3.40;99.90;;;;;;5040378;28;20048;-73
2022/01/07 08:25:52;;;;;;;30.88;18.95;;;3.40;99.90;;;;;;5025055;28;20478;-72
2022/01/07 08:28:19;;;;;;;33.20;20.95;;;3.40;99.90;;;;;;5048725;28;20079;-73
2022/01/07 08:36:24;;;;;;;31.75;18.83;;;3.50;99.90;;;;;;5039990;28;20037;-73
2022/01/07 08:38:50;;;;;;;32.40;19.10;;;3.50;99.90;;;;;;5048033;28;20108;-72
2022/01/07 08:41:17;;;;;;;31.00;17.58;;;3.50;99.90;;;;;;5047145;28;20027;-72
2022/01/07 08:43:43;;;;;;;30.08;18.42;;;3.50;99.90;;;;;;5048792;28;20069;-72
2022/01/07 08:46:09;;;;;;;29.73;19.38;;;3.50;99.90;;;;;;5040107;28;20381;-72
2022/01/07 08:48:36;;;;;;;29.80;18.92;;;3.50;99.90;;;;;;5039990;28;20094;-73
2022/01/07 08:51:03;;;;;;;31.10;19.95;;;3.40;99.90;;;;;;5054232;28;20017;-72
2022/01/07 08:53:28;;;;;;;31.23;19.20;;;3.50;99.90;;;;;;5045473;28;20091;-73
2022/01/07 08:55:54;;;;;;;34.75;20.50;;;3.40;99.90;;;;;;5052187;28;20028;-73
2022/01/07 08:58:20;;;;;;;30.67;18.52;;;3.40;99.90;;;;;;5041409;28;20044;-72
2022/01/07 09:00:45;;;;;;;31.48;19.52;;;3.50;99.90;;;;;;5050998;28;20021;-73
2022/01/07 09:03:11;;;;;;;30.05;18.67;;;3.50;99.90;;;;;;5044468;28;20021;-73
2022/01/07 09:05:37;;;;;;;34.13;21.35;;;3.50;99.90;;;;;;5044473;28;20458;-72
2022/01/07 09:08:02;;;;;;;35.50;21.05;;;3.50;99.90;;;;;;5051160;28;20418;-72
2022/01/07 09:10:29;;;;;;;39.78;22.02;;;3.50;99.90;;;;;;5039363;28;20021;-72
2022/01/07 09:12:55;;;;;;;33.42;19.42;;;3.50;99.90;;;;;;5048531;28;20045;-73
2022/01/07 09:15:21;;;;;;;36.63;20.52;;;3.50;99.90;;;;;;5047453;28;20392;-73
2022/01/07 09:17:46;;;;;;;38.58;20.15;;;3.50;99.90;;;;;;5025165;28;20113;-73
2022/01/07 09:20:12;;;;;;;34.05;22.17;;;3.50;99.90;;;;;;5035490;28;20065;-73
2022/01/07 09:22:38;;;;;;;31.70;20.55;;;3.50;99.90;;;;;;5035349;28;20033;-72
2022/01/07 09:25:05;;;;;;;31.83;21.73;;;3.50;99.90;;;;;;5035841;28;20429;-74
2022/01/07 09:27:34;;;;;;;32.72;20.15;;;3.60;99.90;;;;;;5038338;28;20424;-73
2022/01/07 09:30:00;;;;;;;33.95;20.83;;;3.60;99.90;;;;;;5055150;28;20028;-73
2022/01/07 09:32:25;;;;;;;33.50;21.38;;;3.60;99.90;;;;;;5037132;28;20025;-73
2022/01/07 09:34:51;;;;;;;33.28;21.08;;;3.60;99.90;;;;;;5049028;28;20423;-71
2022/01/07 09:37:17;;;;;;;37.95;21.90;;;3.70;99.90;;;;;;5053650;28;20132;-71
2022/01/07 09:39:42;;;;;;;34.60;22.25;;;3.70;99.90;;;;;;5039555;28;20060;-72
2022/01/07 09:42:08;;;;;;;38.13;22.23;;;3.70;99.90;;;;;;5055081;28;20474;-72
2022/01/07 09:44:39;;;;;;;34.22;21.55;;;3.70;99.90;;;;;;5043292;28;20022;-72
2022/01/07 09:47:05;;;;;;;36.53;22.75;;;3.70;99.90;;;;;;5050749;28;20028;-73
2022/01/07 09:49:33;;;;;;;35.65;22.15;;;3.70;99.90;;;;;;5038117;28;20037;-72
2022/01/07 09:51:59;;;;;;;38.40;22.85;;;3.80;99.90;;;;;;5054912;28;20070;-73
2022/01/07 09:54:25;;;;;;;34.55;22.20;;;3.80;99.90;;;;;;5044920;28;20018;-73
2022/01/07 09:56:51;;;;;;;36.00;23.48;;;3.90;99.90;;;;;;5048013;28;20585;-73
2022/01/07 09:59:17;;;;;;;34.47;21.67;;;3.90;99.90;;;;;;5053183;28;20024;-71
2022/01/07 10:02:02;;;;;;;35.00;22.35;;;4.00;99.90;;;;;;5038874;28;20021;-72
2022/01/07 10:04:33;;;;;;;38.80;21.75;;;4.00;99.90;;;;;;5043401;28;20451;-72
2022/01/07 10:07:24;;;;;;;35.83;21.63;;;4.10;99.90;;;;;;5051179;28;20078;-72
2022/01/07 10:10:19;;;;;;;36.15;22.15;;;4.30;99.90;;;;;;5039812;28;20131;-73
2022/01/07 10:13:00;;;;;;;35.13;21.13;;;4.30;99.90;;;;;;5040917;28;20391;-73
2022/01/07 10:15:43;;;;;;;30.23;20.88;;;4.20;99.90;;;;;;5050234;28;20021;-73
2022/01/07 10:18:12;;;;;;;32.15;20.63;;;4.30;99.90;;;;;;5042301;28;20057;-72
2022/01/07 10:20:40;;;;;;;34.80;21.25;;;4.20;99.90;;;;;;5050724;28;20452;-73
2022/01/07 10:23:08;;;;;;;41.08;22.95;;;4.30;99.90;;;;;;5040043;28;20026;-73
2022/01/07 10:25:36;;;;;;;36.17;22.67;;;4.30;99.90;;;;;;5053041;28;20115;-72
2022/01/07 10:28:07;;;;;;;33.90;21.55;;;4.30;99.90;;;;;;5029814;28;20029;-72
2022/01/07 10:30:35;;;;;;;35.72;20.95;;;4.40;99.90;;;;;;5026389;28;20382;-73
2022/01/07 10:33:13;;;;;;;33.65;21.02;;;4.40;99.90;;;;;;5053578;28;20029;-72
2022/01/07 10:35:39;;;;;;;36.35;21.63;;;4.40;99.90;;;;;;5050705;28;20029;-73
2022/01/07 10:38:04;;;;;;;34.50;20.80;;;4.40;99.90;;;;;;5040081;28;20025;-74
2022/01/07 10:40:34;;;;;;;41.03;21.67;;;4.50;99.90;;;;;;5053552;28;20029;-73
2022/01/07 10:43:16;;;;;;;36.90;22.02;;;4.50;99.90;;;;;;5039215;28;20382;-72
2022/01/07 10:45:50;;;;;;;39.20;22.10;;;4.50;99.90;;;;;;5034719;28;20028;-72
2022/01/07 10:48:17;;;;;;;37.10;21.75;;;4.50;99.90;;;;;;5044062;28;20033;-72
2022/01/07 10:50:52;;;;;;;38.88;21.20;;;4.50;99.90;;;;;;5036181;28;20021;-74
2022/01/07 10:53:26;;;;;;;35.63;21.05;;;4.50;99.90;;;;;;5049978;28;20032;-73
2022/01/07 10:56:06;;;;;;;31.88;20.98;;;4.60;99.90;;;;;;5053503;28;20025;-73
2022/01/07 10:59:03;;;;;;;35.40;20.13;;;4.60;99.90;;;;;;5050264;28;20055;-74
2022/01/07 11:01:32;;;;;;;34.72;22.38;;;4.60;99.90;;;;;;5024606;28;20107;-73
2022/01/07 11:03:59;;;;;;;37.53;22.63;;;4.60;99.90;;;;;;5039743;28;20025;-73
2022/01/07 11:06:26;;;;;;;33.28;21.67;;;4.60;99.90;;;;;;5049202;28;20048;-73
2022/01/07 11:08:54;;;;;;;35.80;22.02;;;4.60;99.90;;;;;;5043276;28;20430;-72
2022/01/07 11:11:22;;;;;;;40.67;23.15;;;4.60;99.90;;;;;;5056536;28;20029;-72
2022/01/07 11:13:48;;;;;;;46.28;23.48;;;4.60;99.90;;;;;;5045136;28;20029;-73
2022/01/07 11:16:14;;;;;;;40.30;23.10;;;4.60;99.90;;;;;;5037685;28;20033;-73
2022/01/07 11:18:41;;;;;;;37.45;22.30;;;4.60;99.90;;;;;;5048655;28;20033;-72
2022/01/07 11:21:09;;;;;;;37.78;21.92;;;4.60;99.90;;;;;;5038611;28;20127;-73
2022/01/07 11:23:37;;;;;;;48.88;23.52;;;4.60;99.90;;;;;;5027294;28;20139;-73
2022/01/07 11:26:11;;;;;;;49.78;24.75;;;4.60;99.90;;;;;;5021400;28;20021;-73
2022/01/07 11:29:00;;;;;;;40.83;22.88;;;4.60;99.90;;;;;;5048412;28;20363;-73
2022/01/07 11:31:27;;;;;;;44.10;21.85;;;4.60;99.90;;;;;;5033760;28;20040;-74
2022/01/07 11:34:17;;;;;;;49.45;24.15;;;4.70;99.90;;;;;;5047957;28;20499;-73
2022/01/07 11:36:43;;;;;;;41.37;23.93;;;4.70;99.90;;;;;;5054903;28;20094;-73
2022/01/07 11:39:08;;;;;;;46.50;23.08;;;4.80;99.90;;;;;;5042088;28;20481;-73
2022/01/07 11:41:47;;;;;;;39.80;23.77;;;4.80;99.90;;;;;;5028409;28;20036;-72
2022/01/07 11:44:30;;;;;;;41.13;23.30;;;4.80;99.90;;;;;;5032524;28;20035;-72
2022/01/07 11:47:17;;;;;;;43.42;23.63;;;4.80;99.90;;;;;;5041712;28;20025;-74
2022/01/07 11:49:42;;;;;;;42.63;22.80;;;4.90;99.90;;;;;;5042624;28;20033;-73
2022/01/07 11:52:30;;;;;;;43.05;25.05;;;4.90;99.90;;;;;;5040502;28;20025;-74
2022/01/07 11:55:23;;;;;;;39.40;22.50;;;4.90;99.90;;;;;;5038909;28;20037;-72
2022/01/07 11:58:06;;;;;;;43.47;23.58;;;4.90;99.90;;;;;;5042138;28;20433;-72
2022/01/07 12:00:58;;;;;;;47.58;23.35;;;4.90;99.90;;;;;;5042024;28;20056;-72
2022/01/07 12:03:49;;;;;;;49.03;25.00;;;5.00;99.90;;;;;;5017888;28;20029;-72
2022/01/07 12:06:17;;;;;;;51.58;23.90;;;5.00;99.90;;;;;;5017776;28;20098;-72
2022/01/07 12:08:58;;;;;;;43.05;23.75;;;5.10;99.90;;;;;;5020363;28;20078;-72
2022/01/07 12:11:26;;;;;;;45.03;23.63;;;5.10;99.90;;;;;;5055961;28;20203;-73
2022/01/07 12:13:51;;;;;;;45.08;23.10;;;5.10;99.90;;;;;;5043241;28;20030;-73
2022/01/07 12:16:36;;;;;;;40.63;22.20;;;5.20;99.90;;;;;;5035470;28;20040;-71
2022/01/07 12:19:23;;;;;;;45.40;21.48;;;5.30;99.90;;;;;;5038736;28;20176;-71
2022/01/07 12:21:54;;;;;;;42.95;20.92;;;5.40;99.90;;;;;;4976701;28;20123;-72
2022/01/07 12:24:28;;;;;;;35.28;20.08;;;5.50;99.90;;;;;;5050086;28;20021;-72
2022/01/07 12:27:20;;;;;;;35.35;19.95;;;5.50;99.90;;;;;;5034961;28;20064;-73
2022/01/07 12:29:48;;;;;;;33.30;19.15;;;5.50;99.90;;;;;;5035677;28;20041;-72
2022/01/07 12:32:16;;;;;;;36.72;18.88;;;5.60;99.90;;;;;;5039187;28;20021;-71
2022/01/07 12:34:45;;;;;;;43.05;18.17;;;5.60;99.90;;;;;;5050888;28;20100;-73
2022/01/07 12:37:16;;;;;;;36.22;18.92;;;5.60;99.90;;;;;;5051950;28;20139;-72
2022/01/07 12:39:48;;;;;;;36.58;18.63;;;5.60;99.90;;;;;;5038752;28;20025;-74
2022/01/07 12:42:14;;;;;;;31.90;16.80;;;5.60;99.90;;;;;;5046958;28;20045;-73
2022/01/07 12:44:46;;;;;;;27.52;15.73;;;5.60;99.90;;;;;;5046296;28;20017;-73
2022/01/07 12:47:17;;;;;;;35.03;16.88;;;5.60;99.90;;;;;;5039849;28;20026;-72